Time;durP1;ratioP1;P1;durP2;ratioP2;P2;SDS_P1;SDS_P2;PMS_P1;PMS_P2;Temp;Humidity;BMP_temperature;BMP_pressure;BME280_temperature;BME280_humidity;BME280_pressure;Samples;Min_cycle;Max_cycle;Signal;HPM_P1;HPM_P2
2021/05/28 08:45:24;;;;;;;13.35;9.63;;;;;;;27.95;43.63;99426.19;5086259;27;1820772;-63
2021/05/28 08:47:49;;;;;;;10.15;8.95;;;;;;;28.88;41.46;99430.06;5124888;28;20507;-63
2021/05/28 08:50:15;;;;;;;13.90;9.57;;;;;;;29.30;40.73;99430.91;5127909;27;20063;-63
2021/05/28 08:52:41;;;;;;;9.52;8.25;;;;;;;29.39;39.76;99438.00;5126783;28;20112;-65
2021/05/28 08:55:07;;;;;;;8.85;7.90;;;;;;;29.31;39.82;99432.59;5127080;27;20050;-64
2021/05/28 08:57:33;;;;;;;8.55;7.70;;;;;;;29.60;39.27;99423.25;5127495;27;20039;-64
2021/05/28 08:59:59;;;;;;;7.95;7.20;;;;;;;28.85;40.90;99416.94;5127341;27;20050;-64
2021/05/28 09:02:32;;;;;;;7.50;6.53;;;;;;;28.37;41.49;99421.03;5126226;27;20490;-64
2021/05/28 09:05:15;;;;;;;7.32;6.60;;;;;;;27.39;43.10;99420.09;5125236;27;20119;-70
2021/05/28 09:07:58;;;;;;;10.98;6.45;;;;;;;27.37;42.18;99419.41;5125383;28;20054;-66
2021/05/28 09:10:33;;;;;;;8.88;6.60;;;;;;;27.31;43.00;99414.63;5123849;28;20146;-64
2021/05/28 09:13:14;;;;;;;12.48;7.60;;;;;;;26.68;43.54;99405.59;5124772;27;20051;-64
2021/05/28 09:15:43;;;;;;;9.57;6.82;;;;;;;26.67;44.20;99407.44;5123114;28;20043;-65
2021/05/28 09:18:09;;;;;;;9.05;5.80;;;;;;;26.51;43.56;99407.22;5124275;27;20047;-64
2021/05/28 09:20:36;;;;;;;6.35;5.82;;;;;;;27.13;42.26;99413.75;5123499;28;20046;-63
2021/05/28 09:23:08;;;;;;;8.02;5.90;;;;;;;27.53;41.06;99411.53;5110827;27;20475;-65
2021/05/28 09:26:10;;;;;;;7.78;5.65;;;;;;;27.25;42.38;99411.72;5103539;28;20168;-65
2021/05/28 09:28:50;;;;;;;6.30;5.70;;;;;;;26.12;43.61;99411.81;5021621;28;20053;-66
2021/05/28 09:31:20;;;;;;;8.82;5.68;;;;;;;25.67;45.05;99408.88;5095075;28;20485;-66
2021/05/28 09:34:02;;;;;;;7.68;5.82;;;;;;;25.57;45.09;99407.03;5104354;28;20039;-65
2021/05/28 09:36:31;;;;;;;7.70;5.93;;;;;;;25.60;44.90;99409.41;5105441;28;20113;-66
2021/05/28 09:38:59;;;;;;;6.20;5.60;;;;;;;26.09;44.41;99404.91;5103480;28;20051;-66
2021/05/28 09:41:35;;;;;;;9.98;5.70;;;;;;;26.42;43.90;99405.44;5104288;28;20040;-65
2021/05/28 09:44:15;;;;;;;15.65;5.55;;;;;;;26.77;42.99;99405.59;5104506;28;20051;-63
2021/05/28 09:47:14;;;;;;;10.25;6.22;;;;;;;26.95;42.74;99399.44;5103028;28;20047;-63
2021/05/28 09:49:45;;;;;;;10.52;5.25;;;;;;;26.86;42.78;99393.97;5083739;28;20573;-66
2021/05/28 09:52:22;;;;;;;10.52;6.20;;;;;;;26.61;43.80;99383.88;5102972;28;20115;-64
2021/05/28 09:55:08;;;;;;;7.38;6.07;;;;;;;26.60;44.46;99395.63;5101880;28;20059;-66
2021/05/28 09:57:39;;;;;;;8.75;6.40;;;;;;;26.39;44.27;99397.66;5090162;28;20577;-64
2021/05/28 10:00:21;;;;;;;12.43;6.05;;;;;;;26.35;43.01;99389.06;5089618;28;20036;-63
2021/05/28 10:02:51;;;;;;;12.52;6.50;;;;;;;26.13;43.83;99400.97;5088428;28;20055;-64
2021/05/28 10:05:24;;;;;;;7.38;6.00;;;;;;;25.95;44.56;99391.94;5070774;28;20134;-64
2021/05/28 10:07:50;;;;;;;7.97;5.93;;;;;;;25.79;44.89;99386.31;5090549;28;20051;-63
2021/05/28 10:10:17;;;;;;;6.47;5.85;;;;;;;25.59;45.11;99388.13;5090099;28;20521;-64
2021/05/28 10:12:46;;;;;;;9.93;5.82;;;;;;;25.68;45.34;99390.00;5090553;28;20404;-64
2021/05/28 10:15:12;;;;;;;11.18;6.53;;;;;;;25.30;46.08;99388.13;5089272;28;20047;-65
2021/05/28 10:17:39;;;;;;;6.75;5.63;;;;;;;24.73;46.52;99386.09;5089654;28;20043;-64
2021/05/28 10:20:06;;;;;;;8.10;6.38;;;;;;;24.53;47.28;99385.19;5089272;28;20036;-63
2021/05/28 10:22:32;;;;;;;7.47;5.78;;;;;;;24.42;47.92;99380.75;5069750;28;20044;-64
2021/05/28 10:25:01;;;;;;;6.75;6.03;;;;;;;24.76;47.63;99392.03;5088910;28;20416;-64
2021/05/28 10:27:27;;;;;;;9.07;6.05;;;;;;;24.64;46.62;99374.38;5087979;28;20581;-66
2021/05/28 10:29:54;;;;;;;6.47;5.72;;;;;;;24.69;47.48;99390.88;5088540;28;20143;-69
2021/05/28 10:32:20;;;;;;;11.60;6.30;;;;;;;24.38;48.19;99388.19;5088441;28;20055;-65
2021/05/28 10:35:03;;;;;;;12.38;6.55;;;;;;;24.35;49.06;99385.78;5088053;28;20488;-64
2021/05/28 10:37:30;;;;;;;8.45;6.30;;;;;;;24.41;49.26;99389.75;5089552;28;20048;-67
2021/05/28 10:39:56;;;;;;;8.07;6.32;;;;;;;24.40;49.21;99383.56;5088826;28;20047;-64
2021/05/28 10:42:22;;;;;;;10.23;6.45;;;;;;;24.13;49.69;99382.41;5089133;28;20040;-64
2021/05/28 10:44:48;;;;;;;8.98;6.65;;;;;;;23.86;50.93;99378.44;5088823;28;20102;-64
2021/05/28 10:47:14;;;;;;;12.65;6.85;;;;;;;23.82;51.14;99386.84;5087722;28;20059;-64
2021/05/28 10:49:43;;;;;;;16.30;6.80;;;;;;;23.77;51.36;99392.53;5089842;28;20043;-64
2021/05/28 10:52:26;;;;;;;9.80;6.72;;;;;;;23.57;51.93;99390.69;5089182;28;20040;-69
2021/05/28 10:55:12;;;;;;;11.63;7.05;;;;;;;23.34;52.25;99373.88;5088931;28;20066;-66
2021/05/28 10:57:51;;;;;;;9.43;7.28;;;;;;;23.34;52.01;99376.56;5084243;28;20062;-66
2021/05/28 11:00:38;;;;;;;11.80;7.40;;;;;;;23.45;52.63;99385.38;5089002;28;20052;-66
2021/05/28 11:03:13;;;;;;;15.40;6.90;;;;;;;23.31;52.82;99385.66;5087525;28;20054;-69
2021/05/28 11:05:44;;;;;;;8.35;7.05;;;;;;;23.23;53.14;99397.94;5089217;28;20489;-67
2021/05/28 11:08:43;;;;;;;8.07;7.18;;;;;;;23.26;53.54;99387.88;5086926;28;20048;-67
2021/05/28 11:11:38;;;;;;;10.20;6.82;;;;;;;23.31;53.06;99388.34;5089377;28;20043;-68
2021/05/28 11:14:19;;;;;;;12.55;7.10;;;;;;;23.19;52.91;99369.81;5088432;28;20040;-65
2021/05/28 11:16:51;;;;;;;13.75;7.20;;;;;;;23.14;53.55;99384.38;5088830;28;20042;-66
2021/05/28 11:19:25;;;;;;;12.55;7.18;;;;;;;23.33;52.53;99377.53;5086244;28;20100;-64
2021/05/28 11:21:58;;;;;;;11.85;6.60;;;;;;;23.43;52.95;99375.78;5086903;28;20048;-66
2021/05/28 11:24:46;;;;;;;10.10;7.20;;;;;;;23.52;51.64;99372.34;5087694;28;20043;-66
2021/05/28 11:27:22;;;;;;;8.88;6.55;;;;;;;23.53;47.76;99371.38;5089143;28;20048;-66
2021/05/28 11:30:08;;;;;;;24.58;10.68;;;;;;;23.61;46.21;99370.75;5071306;28;20044;-65
2021/05/28 11:32:43;;;;;;;11.85;7.03;;;;;;;23.77;45.44;99372.00;5075333;28;20523;-65
2021/05/28 11:35:38;;;;;;;13.40;6.20;;;;;;;23.97;45.52;99367.69;5090035;28;20196;-64
2021/05/28 11:38:06;;;;;;;10.10;5.00;;;;;;;24.09;44.34;99368.44;5072581;28;20039;-63
2021/05/28 11:40:35;;;;;;;10.05;4.65;;;;;;;24.31;43.67;99365.63;5089325;28;20062;-64
2021/05/28 11:43:07;;;;;;;14.52;4.32;;;;;;;24.45;43.00;99371.59;5088750;28;20105;-66
2021/05/28 11:45:34;;;;;;;6.35;4.43;;;;;;;24.44;41.63;99361.91;5089501;28;20059;-63
2021/05/28 11:47:59;;;;;;;7.60;4.03;;;;;;;24.58;41.77;99359.72;5089026;28;20078;-64
2021/05/28 11:50:39;;;;;;;8.77;4.07;;;;;;;24.65;42.12;99358.19;5090354;28;20064;-64
2021/05/28 11:53:05;;;;;;;24.95;7.13;;;;;;;24.71;42.12;99356.81;5089398;28;20913;-65
2021/05/28 11:55:32;;;;;;;10.82;5.57;;;;;;;24.81;42.22;99363.03;5088860;28;20042;-63
2021/05/28 11:58:00;;;;;;;9.43;4.45;;;;;;;24.84;42.15;99341.34;5089653;28;20032;-65
2021/05/28 12:00:27;;;;;;;6.18;3.90;;;;;;;24.95;41.15;99354.63;5088508;28;20048;-66
2021/05/28 12:02:57;;;;;;;9.07;4.40;;;;;;;24.96;41.39;99356.31;5090146;28;20130;-67
2021/05/28 12:05:31;;;;;;;9.00;4.20;;;;;;;25.11;40.83;99353.25;5088174;28;20048;-67
2021/05/28 12:08:01;;;;;;;8.13;4.63;;;;;;;25.26;40.46;99346.50;5088272;28;20132;-66
2021/05/28 12:10:28;;;;;;;5.82;3.90;;;;;;;25.18;39.25;99351.72;5088034;28;20120;-67
2021/05/28 12:13:08;;;;;;;3.72;3.40;;;;;;;25.21;39.45;99348.75;5088781;28;20048;-66
2021/05/28 12:15:35;;;;;;;10.38;4.35;;;;;;;25.49;39.43;99345.28;5088600;28;20043;-63
2021/05/28 12:18:14;;;;;;;3.88;3.55;;;;;;;25.33;39.50;99331.59;5087614;28;20130;-67
2021/05/28 12:20:42;;;;;;;7.88;3.53;;;;;;;25.20;39.77;99347.06;5087512;28;20048;-65
2021/05/28 12:23:18;;;;;;;5.80;3.55;;;;;;;24.75;40.08;99339.50;5085793;28;20048;-64
2021/05/28 12:25:53;;;;;;;5.18;3.80;;;;;;;24.58;39.84;99341.00;5087334;28;20043;-64
2021/05/28 12:28:23;;;;;;;11.38;3.30;;;;;;;24.55;40.27;99340.44;5088113;28;20465;-67
2021/05/28 12:31:00;;;;;;;6.30;3.72;;;;;;;24.47;40.86;99333.06;5087274;28;20096;-66
2021/05/28 12:33:31;;;;;;;5.13;4.25;;;;;;;24.44;42.17;99332.47;5087159;28;20047;-66
2021/05/28 12:35:59;;;;;;;11.18;4.55;;;;;;;24.15;42.17;99330.50;5085872;28;20072;-65
2021/05/28 12:38:32;;;;;;;6.10;4.07;;;;;;;24.02;42.01;99328.06;5087827;28;20055;-64
2021/05/28 12:40:59;;;;;;;9.75;4.20;;;;;;;24.18;42.31;99326.72;5087181;28;20051;-65
2021/05/28 12:43:30;;;;;;;7.70;4.45;;;;;;;23.94;43.32;99316.31;5087872;28;20339;-66
2021/05/28 12:45:57;;;;;;;6.88;3.75;;;;;;;23.91;42.97;99321.94;5087597;28;20047;-66
2021/05/28 12:48:45;;;;;;;6.78;3.70;;;;;;;23.77;42.89;99323.94;5087658;28;20052;-64
2021/05/28 12:51:12;;;;;;;6.13;3.72;;;;;;;23.96;42.84;99319.72;5087584;28;20123;-65
2021/05/28 12:53:40;;;;;;;7.93;4.30;;;;;;;23.91;42.96;99319.28;5088058;28;20058;-64
2021/05/28 12:56:07;;;;;;;3.72;3.38;;;;;;;23.77;42.08;99321.25;5089421;28;20076;-65
2021/05/28 12:58:34;;;;;;;9.38;3.85;;;;;;;23.80;42.38;99317.53;5086637;28;20048;-63
2021/05/28 13:01:05;;;;;;;4.72;4.32;;;;;;;23.70;41.78;99317.44;5089309;28;20044;-63
2021/05/28 13:03:31;;;;;;;13.10;5.13;;;;;;;23.79;41.79;99325.66;5085852;28;20051;-63
2021/05/28 13:05:56;;;;;;;13.82;4.35;;;;;;;23.82;41.95;99314.72;5088233;28;20043;-63
2021/05/28 13:08:32;;;;;;;9.23;4.30;;;;;;;23.70;41.99;99308.56;5086729;28;20048;-64
2021/05/28 13:10:58;;;;;;;8.57;5.30;;;;;;;23.77;42.32;99315.91;5088648;28;20118;-62
2021/05/28 13:13:24;;;;;;;4.97;4.30;;;;;;;23.81;42.05;99316.53;5069533;28;20052;-64
2021/05/28 13:15:51;;;;;;;5.45;4.25;;;;;;;23.66;41.54;99305.31;5088436;28;20493;-66
2021/05/28 13:18:17;;;;;;;6.45;3.90;;;;;;;23.64;42.15;99317.09;5087443;28;20050;-64
2021/05/28 13:20:44;;;;;;;13.38;4.50;;;;;;;23.59;42.49;99325.50;5087231;28;20044;-63
2021/05/28 13:23:19;;;;;;;17.52;4.72;;;;;;;23.66;42.06;99317.81;5086425;28;20044;-64
2021/05/28 13:25:47;;;;;;;6.70;4.03;;;;;;;23.72;41.61;99315.47;5085773;28;20048;-63
2021/05/28 13:28:13;;;;;;;7.88;3.85;;;;;;;23.73;42.36;99321.66;5086694;28;20044;-64
2021/05/28 13:30:46;;;;;;;5.05;4.00;;;;;;;23.57;42.68;99311.44;5087520;28;20047;-66
2021/05/28 13:33:17;;;;;;;;;;;;;;;23.64;42.67;99317.94;5071992;28;20415;-64
2021/05/28 13:35:44;;;;;;;8.52;3.67;;;;;;;23.54;41.16;99322.34;5090298;28;20466;-63
2021/05/28 13:38:10;;;;;;;7.55;3.20;;;;;;;23.56;41.33;99320.41;5090837;28;20408;-64
2021/05/28 13:40:36;;;;;;;5.10;3.38;;;;;;;23.51;41.75;99314.59;5089834;28;20036;-67
2021/05/28 13:43:02;;;;;;;7.25;3.90;;;;;;;23.45;42.76;99310.63;5090180;28;20044;-66
2021/05/28 13:45:28;;;;;;;4.43;3.80;;;;;;;23.41;41.60;99308.34;5091447;28;20467;-65
2021/05/28 13:47:54;;;;;;;12.23;3.88;;;;;;;23.63;42.04;99304.72;5089992;28;20047;-63
2021/05/28 13:50:22;;;;;;;10.32;3.80;;;;;;;23.86;41.72;99300.97;5073702;28;20492;-64
2021/05/28 13:52:48;;;;;;;5.07;3.80;;;;;;;24.11;41.46;99298.84;5090981;28;20901;-64
2021/05/28 13:55:14;;;;;;;10.45;4.10;;;;;;;24.20;41.00;99304.22;5091744;28;20134;-63
2021/05/28 13:57:41;;;;;;;7.70;3.90;;;;;;;24.24;41.42;99292.28;5091020;28;20119;-63
2021/05/28 14:00:08;;;;;;;11.68;4.10;;;;;;;24.23;41.28;99287.91;5089381;28;20039;-65
2021/05/28 14:02:37;;;;;;;13.13;4.05;;;;;;;24.00;40.95;99286.41;5091511;28;20072;-65
2021/05/28 14:05:05;;;;;;;6.15;3.80;;;;;;;23.75;41.24;99272.47;5089973;28;20055;-65
2021/05/28 14:07:31;;;;;;;10.43;4.25;;;;;;;23.92;41.76;99280.88;5090147;28;20542;-65
2021/05/28 14:09:57;;;;;;;4.63;4.20;;;;;;;23.75;44.00;99275.16;5090586;28;20044;-65
2021/05/28 14:12:24;;;;;;;11.38;4.22;;;;;;;23.74;44.60;99286.81;5089537;28;20044;-64
2021/05/28 14:14:50;;;;;;;8.20;4.10;;;;;;;23.65;44.10;99284.94;5090988;28;20051;-65
2021/05/28 14:17:16;;;;;;;9.55;4.40;;;;;;;23.59;44.14;99282.78;5090057;28;20044;-66
2021/05/28 14:19:42;;;;;;;7.65;3.88;;;;;;;23.60;44.49;99278.28;5072453;28;20461;-64
2021/05/28 14:22:08;;;;;;;10.55;4.30;;;;;;;23.61;43.46;99286.16;5091089;28;20042;-67
2021/05/28 14:24:34;;;;;;;13.02;4.75;;;;;;;23.59;43.62;99280.09;5090477;28;20075;-63
2021/05/28 14:27:00;;;;;;;8.15;4.72;;;;;;;23.66;43.40;99281.28;5090877;28;20076;-65
2021/05/28 14:29:26;;;;;;;10.23;5.18;;;;;;;23.68;43.20;99265.13;5088667;28;20493;-64
2021/05/28 14:31:52;;;;;;;6.97;4.05;;;;;;;23.69;43.67;99278.34;5090548;28;20044;-65
2021/05/28 14:34:18;;;;;;;9.70;4.55;;;;;;;23.65;43.61;99276.06;5088049;28;20120;-65
2021/05/28 14:36:44;;;;;;;10.57;4.50;;;;;;;23.64;43.71;99275.22;5088940;28;20040;-65
2021/05/28 14:39:11;;;;;;;13.90;5.20;;;;;;;23.73;44.60;99269.09;5090355;28;20101;-64
2021/05/28 14:41:38;;;;;;;13.45;3.80;;;;;;;23.80;43.97;99285.47;5090356;28;20196;-65
2021/05/28 14:44:04;;;;;;;8.88;4.60;;;;;;;23.74;44.36;99276.13;5088291;28;20159;-64
2021/05/28 14:46:30;;;;;;;8.93;4.50;;;;;;;23.67;44.41;99263.44;5087526;28;20044;-64
2021/05/28 14:48:56;;;;;;;5.38;3.83;;;;;;;23.64;43.92;99261.03;5087796;28;20154;-64
2021/05/28 14:51:23;;;;;;;7.55;4.10;;;;;;;23.73;44.41;99266.41;5087805;28;20040;-66
2021/05/28 14:53:51;;;;;;;4.85;3.67;;;;;;;23.81;44.43;99265.78;5071815;28;20128;-65
2021/05/28 14:56:17;;;;;;;6.63;3.97;;;;;;;23.89;44.44;99267.78;5087666;28;20055;-63
2021/05/28 14:58:43;;;;;;;4.75;4.13;;;;;;;23.96;44.48;99259.13;5088109;28;20040;-66
2021/05/28 15:01:09;;;;;;;17.05;5.72;;;;;;;24.17;44.23;99263.56;5089014;28;20118;-65
2021/05/28 15:03:35;;;;;;;10.93;4.40;;;;;;;24.16;44.87;99262.72;5088333;28;20044;-65
2021/05/28 15:06:01;;;;;;;16.25;4.93;;;;;;;24.04;44.78;99258.44;5089234;28;20408;-65
2021/05/28 15:08:27;;;;;;;7.40;4.30;;;;;;;23.97;45.42;99255.47;5089391;28;20052;-65
2021/05/28 15:10:58;;;;;;;16.35;5.53;;;;;;;23.90;44.46;99262.31;5089545;28;20474;-65
2021/05/28 15:13:24;;;;;;;12.38;5.90;;;;;;;23.93;45.26;99266.56;5087960;28;20051;-64
2021/05/28 15:15:49;;;;;;;9.55;6.10;;;;;;;23.91;45.77;99263.16;5088172;28;20511;-66
2021/05/28 15:18:17;;;;;;;14.85;8.23;;;;;;;24.01;45.33;99264.91;5086037;28;20584;-65
2021/05/28 15:20:44;;;;;;;14.80;7.93;;;;;;;23.99;45.41;99266.00;5069799;28;20341;-64
2021/05/28 15:23:11;;;;;;;11.27;6.38;;;;;;;24.00;44.79;99255.19;5085490;28;20101;-63
2021/05/28 15:25:37;;;;;;;10.40;5.07;;;;;;;24.07;44.82;99255.50;5085386;28;20515;-65
2021/05/28 15:28:03;;;;;;;8.20;5.40;;;;;;;24.13;44.63;99267.47;5086914;28;20047;-66
2021/05/28 15:30:29;;;;;;;10.75;5.70;;;;;;;24.07;44.89;99256.34;5085467;28;20130;-64
2021/05/28 15:32:55;;;;;;;11.32;5.70;;;;;;;23.99;44.87;99253.50;5085745;28;20087;-63
2021/05/28 15:35:21;;;;;;;8.93;6.60;;;;;;;24.01;44.74;99267.56;5087271;28;20047;-64
2021/05/28 15:37:48;;;;;;;12.52;6.60;;;;;;;23.92;45.32;99257.69;5070265;28;20094;-64
2021/05/28 15:40:14;;;;;;;9.20;5.93;;;;;;;23.92;45.13;99246.16;5088781;28;20508;-65
2021/05/28 15:42:40;;;;;;;9.40;6.03;;;;;;;23.82;44.88;99243.44;5088017;28;20059;-64
2021/05/28 15:45:08;;;;;;;13.60;5.72;;;;;;;23.85;45.57;99251.19;5087924;28;20474;-65
2021/05/28 15:47:34;;;;;;;13.85;6.25;;;;;;;23.66;46.32;99246.56;5086841;28;20083;-65
2021/05/28 15:49:59;;;;;;;13.85;6.50;;;;;;;23.59;46.68;99256.06;5086310;28;20068;-66
2021/05/28 15:52:26;;;;;;;19.33;6.95;;;;;;;23.48;46.93;99249.94;5088396;28;20040;-64
2021/05/28 15:54:52;;;;;;;11.55;6.25;;;;;;;23.38;47.14;99252.53;5068931;28;20043;-67
2021/05/28 15:57:18;;;;;;;17.77;6.57;;;;;;;23.34;48.09;99249.28;5085366;28;20176;-64
2021/05/28 15:59:43;;;;;;;18.50;6.32;;;;;;;23.30;47.56;99255.00;5087910;28;20423;-66
2021/05/28 16:02:09;;;;;;;13.13;5.63;;;;;;;23.25;47.37;99246.56;5070978;28;20043;-62
2021/05/28 16:04:35;;;;;;;15.13;6.50;;;;;;;23.26;47.97;99249.09;5088488;28;20105;-65
2021/05/28 16:07:02;;;;;;;10.85;6.05;;;;;;;23.27;48.10;99249.94;5087105;28;20036;-63
2021/05/28 16:09:28;;;;;;;10.40;6.20;;;;;;;23.21;48.10;99256.63;5069462;28;20033;-63
2021/05/28 16:11:55;;;;;;;20.27;6.65;;;;;;;23.08;48.47;99232.81;5071257;28;20051;-62
2021/05/28 16:14:21;;;;;;;18.50;6.13;;;;;;;23.03;48.52;99234.13;5086092;28;20048;-64
2021/05/28 16:16:48;;;;;;;15.70;6.70;;;;;;;23.02;48.00;99241.28;5086622;28;20447;-65
2021/05/28 16:19:14;;;;;;;14.05;5.90;;;;;;;22.94;48.34;99248.25;5087979;28;20068;-64
2021/05/28 16:21:41;;;;;;;13.43;6.15;;;;;;;22.82;48.60;99236.78;5087566;28;20047;-63
2021/05/28 16:24:07;;;;;;;13.18;5.72;;;;;;;22.87;48.64;99253.25;5054325;28;20044;-65
2021/05/28 16:26:33;;;;;;;16.17;5.93;;;;;;;22.78;48.85;99251.31;5071141;28;20500;-68
2021/05/28 16:28:59;;;;;;;15.00;5.97;;;;;;;22.69;48.58;99246.72;5088507;28;20086;-65
2021/05/28 16:31:25;;;;;;;13.73;6.20;;;;;;;22.68;49.02;99251.22;5088427;28;20488;-67
2021/05/28 16:33:50;;;;;;;13.95;5.72;;;;;;;22.60;48.82;99248.34;5086841;28;20048;-68
2021/05/28 16:36:16;;;;;;;13.95;5.80;;;;;;;22.56;48.96;99252.22;5088037;28;20136;-67
2021/05/28 16:38:42;;;;;;;14.60;6.57;;;;;;;22.48;49.66;99247.50;5088141;28;20177;-68
2021/05/28 16:41:08;;;;;;;12.75;6.78;;;;;;;22.34;49.50;99250.44;5089304;28;20040;-67
2021/05/28 16:43:33;;;;;;;13.30;6.90;;;;;;;22.34;49.53;99254.94;5087602;28;20118;-68
2021/05/28 16:45:59;;;;;;;13.93;6.95;;;;;;;22.36;49.77;99259.16;5089577;28;20204;-67
2021/05/28 16:48:25;;;;;;;15.05;6.38;;;;;;;22.30;49.87;99248.16;5088280;28;20122;-67
2021/05/28 16:50:54;;;;;;;11.00;6.00;;;;;;;22.26;50.21;99258.19;5089649;28;20044;-69
2021/05/28 16:53:25;;;;;;;11.60;6.38;;;;;;;22.12;49.74;99240.63;5088295;28;20043;-68
2021/05/28 16:55:51;;;;;;;15.88;6.82;;;;;;;22.13;49.97;99241.47;5071627;28;20055;-68
2021/05/28 16:58:17;;;;;;;13.45;6.65;;;;;;;22.15;50.35;99250.19;5089492;28;20036;-68
2021/05/28 17:00:43;;;;;;;12.32;6.57;;;;;;;22.12;50.85;99255.78;5089224;28;20044;-66
2021/05/28 17:03:09;;;;;;;18.42;9.45;;;;;;;22.09;51.36;99253.34;5089673;28;20036;-65
2021/05/28 17:05:35;;;;;;;18.52;8.02;;;;;;;21.97;51.02;99241.81;5090904;28;20036;-67
2021/05/28 17:08:00;;;;;;;21.92;6.80;;;;;;;21.97;50.51;99254.28;5093838;28;20044;-67
2021/05/28 17:10:27;;;;;;;16.58;6.65;;;;;;;21.85;50.98;99254.28;5093837;28;20040;-67
2021/05/28 17:12:53;;;;;;;9.50;6.28;;;;;;;21.67;51.01;99233.59;5092783;28;20040;-67
2021/05/28 17:15:19;;;;;;;15.20;6.50;;;;;;;21.69;51.23;99244.97;5093852;28;20124;-66
2021/05/28 17:17:45;;;;;;;12.35;5.95;;;;;;;21.65;51.23;99244.34;5093754;28;20040;-67
2021/05/28 17:20:11;;;;;;;19.85;6.03;;;;;;;21.60;51.50;99248.34;5092489;28;20043;-65
2021/05/28 17:22:37;;;;;;;18.10;6.30;;;;;;;21.51;51.59;99231.25;5093376;28;20047;-63
2021/05/28 17:25:05;;;;;;;10.43;6.60;;;;;;;21.52;52.01;99246.25;5093799;28;20084;-66
2021/05/28 17:27:31;;;;;;;21.75;6.47;;;;;;;21.50;52.49;99242.84;5058901;28;20121;-64
2021/05/28 17:29:57;;;;;;;16.67;6.40;;;;;;;21.42;52.64;99229.28;5093705;28;20235;-65
2021/05/28 17:32:23;;;;;;;23.45;7.00;;;;;;;21.41;52.57;99227.59;5093600;28;20040;-66
2021/05/28 17:34:49;;;;;;;15.70;6.07;;;;;;;21.38;52.30;99227.81;5092045;28;20044;-65
2021/05/28 17:37:15;;;;;;;20.48;7.47;;;;;;;21.39;52.60;99229.53;5093388;28;20040;-64
2021/05/28 17:39:40;;;;;;;18.90;7.35;;;;;;;21.31;53.09;99223.94;5093457;28;20044;-65
2021/05/28 17:42:07;;;;;;;13.88;7.53;;;;;;;21.25;53.31;99218.13;5093482;28;20036;-66
2021/05/28 17:44:33;;;;;;;15.85;7.68;;;;;;;21.22;53.28;99213.03;5093010;28;20470;-65
2021/05/28 17:46:58;;;;;;;25.73;7.40;;;;;;;21.22;53.39;99218.38;5093140;28;20047;-65
2021/05/28 17:49:24;;;;;;;18.60;7.25;;;;;;;21.23;53.40;99227.19;5093238;28;20048;-66
2021/05/28 17:51:50;;;;;;;16.10;7.65;;;;;;;21.16;53.28;99220.59;5093164;28;20408;-67
2021/05/28 17:54:16;;;;;;;18.75;7.38;;;;;;;21.19;53.43;99223.88;5092769;28;20047;-66
2021/05/28 17:56:41;;;;;;;21.67;7.53;;;;;;;21.18;53.23;99214.22;5092883;28;20051;-65
2021/05/28 17:59:07;;;;;;;15.30;7.75;;;;;;;21.24;53.00;99228.88;5092354;28;20059;-64
2021/05/28 18:01:34;;;;;;;21.83;8.30;;;;;;;21.24;55.40;99223.56;5073962;28;20051;-66
2021/05/28 18:04:00;;;;;;;24.52;8.90;;;;;;;21.18;57.46;99226.66;5092139;28;20492;-66
2021/05/28 18:06:26;;;;;;;17.92;8.48;;;;;;;21.05;58.60;99217.91;5092533;28;20047;-65
2021/05/28 18:08:51;;;;;;;16.15;8.73;;;;;;;21.02;60.03;99226.13;5092692;28;20032;-66
2021/05/28 18:11:17;;;;;;;24.65;8.45;;;;;;;20.92;59.05;99223.31;5093234;28;20145;-64
2021/05/28 18:13:43;;;;;;;19.67;10.02;;;;;;;20.86;57.02;99215.81;5091395;28;20047;-64
2021/05/28 18:16:09;;;;;;;20.20;9.60;;;;;;;20.82;61.56;99225.81;5092608;28;20040;-67
2021/05/28 18:18:34;;;;;;;17.95;9.63;;;;;;;20.76;60.89;99220.94;5092696;28;20051;-66
2021/05/28 18:21:00;;;;;;;25.58;8.55;;;;;;;20.79;60.69;99220.69;5091184;28;20044;-69
2021/05/28 18:23:26;;;;;;;31.20;13.60;;;;;;;20.74;60.48;99214.03;5092220;28;20556;-67
2021/05/28 18:25:52;;;;;;;25.30;12.65;;;;;;;20.76;59.79;99217.41;5092554;28;20076;-66
2021/05/28 18:28:21;;;;;;;31.73;13.00;;;;;;;20.75;60.39;99213.06;5092666;28;20075;-68
2021/05/28 18:30:50;;;;;;;92.25;51.38;;;;;;;20.64;62.31;99205.88;5091361;28;20454;-68
2021/05/28 18:33:18;;;;;;;77.88;44.20;;;;;;;20.55;63.17;99207.41;5092839;28;20051;-68
2021/05/28 18:35:44;;;;;;;112.40;68.75;;;;;;;20.53;64.05;99212.00;5090792;28;20052;-66
2021/05/28 18:38:10;;;;;;;70.15;39.90;;;;;;;20.44;64.06;99218.00;5091630;28;20538;-68
2021/05/28 18:40:36;;;;;;;76.30;44.17;;;;;;;20.40;64.26;99208.53;5092270;28;20040;-69
2021/05/28 18:43:04;;;;;;;68.53;40.30;;;;;;;20.40;64.81;99219.16;5092108;28;20463;-68
2021/05/28 18:45:30;;;;;;;72.72;39.78;;;;;;;20.33;64.66;99206.41;5092032;28;20060;-67
2021/05/28 18:47:56;;;;;;;59.22;27.45;;;;;;;20.35;64.25;99209.81;5092243;28;20511;-68
2021/05/28 18:50:24;;;;;;;58.40;31.60;;;;;;;20.24;64.59;99198.16;5092015;28;20116;-68
2021/05/28 18:52:50;;;;;;;31.17;16.73;;;;;;;20.31;64.15;99206.53;5091976;28;20141;-68
2021/05/28 18:55:19;;;;;;;55.55;28.05;;;;;;;20.31;63.92;99211.84;5091257;28;20563;-69
2021/05/28 18:57:45;;;;;;;34.97;20.20;;;;;;;20.27;63.78;99218.34;5092421;28;20077;-64
2021/05/28 19:00:14;;;;;;;43.13;25.23;;;;;;;20.15;63.90;99203.28;5091881;28;20638;-67
2021/05/28 19:02:41;;;;;;;31.85;18.92;;;;;;;20.07;63.77;99203.00;5091708;28;20560;-66
2021/05/28 19:05:08;;;;;;;32.58;17.10;;;;;;;20.09;64.28;99206.38;5091922;28;20040;-64
2021/05/28 19:07:34;;;;;;;30.70;16.73;;;;;;;20.14;64.44;99217.53;5091900;28;20067;-65
2021/05/28 19:10:01;;;;;;;29.90;15.70;;;;;;;20.16;64.65;99218.25;5091200;28;20553;-66
2021/05/28 19:12:26;;;;;;;33.53;17.15;;;;;;;20.19;64.03;99215.38;5091277;28;20427;-64
2021/05/28 19:14:52;;;;;;;30.17;14.07;;;;;;;20.20;64.87;99217.09;5090982;28;20047;-65
2021/05/28 19:17:18;;;;;;;31.98;15.75;;;;;;;20.15;63.79;99208.59;5091981;28;20126;-64
2021/05/28 19:19:44;;;;;;;35.03;21.85;;;;;;;20.18;64.48;99213.69;5090575;28;20044;-66
2021/05/28 19:22:12;;;;;;;46.13;21.83;;;;;;;20.14;64.92;99212.22;5091930;28;20130;-66
2021/05/28 19:24:38;;;;;;;44.15;22.30;;;;;;;20.16;65.08;99219.13;5091548;28;20048;-65
2021/05/28 19:27:04;;;;;;;51.90;28.42;;;;;;;20.12;66.82;99208.81;5091819;28;20052;-65
2021/05/28 19:29:29;;;;;;;51.38;25.05;;;;;;;20.10;66.95;99211.59;5091035;28;20424;-66
2021/05/28 19:31:55;;;;;;;47.45;32.53;;;;;;;20.00;66.36;99200.75;5091923;28;20036;-66
2021/05/28 19:34:21;;;;;;;28.98;16.55;;;;;;;20.04;66.38;99208.50;5090867;28;20454;-66
2021/05/28 19:36:47;;;;;;;34.03;17.08;;;;;;;19.87;65.78;99191.97;5091879;28;20044;-66
2021/05/28 19:39:12;;;;;;;26.05;15.95;;;;;;;19.90;66.25;99204.16;5091836;28;20063;-67
2021/05/28 19:41:38;;;;;;;25.92;14.27;;;;;;;19.82;67.11;99195.91;5090272;28;20122;-66
2021/05/28 19:44:04;;;;;;;29.85;14.13;;;;;;;19.82;67.58;99196.75;5091665;28;20059;-65
2021/05/28 19:46:30;;;;;;;27.13;14.00;;;;;;;19.80;67.74;99187.19;5089970;28;20401;-64
2021/05/28 19:48:56;;;;;;;25.25;13.07;;;;;;;19.88;67.31;99198.97;5090124;28;20054;-65
2021/05/28 19:51:25;;;;;;;32.85;15.27;;;;;;;19.94;66.78;99195.88;5091466;28;20044;-65
2021/05/28 19:55:41;;;;;;;28.70;13.38;;;;;;;19.92;66.95;99192.47;5091369;28;20039;-65
2021/05/28 19:56:39;;;;;;;21.05;12.90;;;;;;;19.98;66.04;99201.81;5091183;28;20101;-70
2021/05/28 19:59:04;;;;;;;27.55;13.07;;;;;;;19.92;63.73;99191.63;5089890;28;20048;-66
2021/05/28 20:01:34;;;;;;;36.63;14.85;;;;;;;19.97;62.73;99208.94;5091230;28;20031;-65
2021/05/28 20:04:00;;;;;;;35.42;13.60;;;;;;;20.00;62.43;99200.75;5073834;28;20047;-65
2021/05/28 20:06:26;;;;;;;25.23;14.00;;;;;;;20.06;63.80;99212.72;5091567;28;20044;-64
2021/05/28 20:08:52;;;;;;;32.03;14.48;;;;;;;20.09;63.79;99211.69;5091533;28;20040;-66
2021/05/28 20:11:38;;;;;;;23.63;14.60;;;;;;;19.98;64.37;99193.84;5091347;28;20051;-65
2021/05/28 20:16:48;;;;;;;30.42;14.02;;;;;;;20.02;65.29;99207.75;5091685;28;20036;-66
2021/05/28 20:19:14;;;;;;;35.47;13.93;;;;;;;19.98;67.29;99199.16;5091569;28;20044;-66
2021/05/28 20:21:40;;;;;;;34.42;17.00;;;;;;;19.98;67.10;99202.66;5089856;28;20393;-66